Time;durP1;ratioP1;P1;durP2;ratioP2;P2;SDS_P1;SDS_P2;PMS_P1;PMS_P2;Temp;Humidity;BMP_temperature;BMP_pressure;BME280_temperature;BME280_humidity;BME280_pressure;Samples;Min_cycle;Max_cycle;Signal;HPM_P1;HPM_P2
2021/09/24 00:01:08;;;;;;;9.97;7.50;;;;;;;10.26;52.81;95480.56;5023816;28;20428;-73
2021/09/24 00:03:36;;;;;;;10.03;7.20;;;;;;;10.43;52.52;95497.88;5018282;28;20529;-74
2021/09/24 00:06:05;;;;;;;8.17;7.30;;;;;;;9.91;53.63;95459.81;5013101;28;20436;-72
2021/09/24 00:08:33;;;;;;;11.37;8.63;;;;;;;9.60;53.72;95491.75;5017285;28;20445;-71
2021/09/24 00:10:59;;;;;;;9.83;7.50;;;;;;;10.01;53.58;95486.16;5020527;28;20524;-72
2021/09/24 00:13:27;;;;;;;11.07;7.63;;;;;;;10.10;53.43;95490.00;5014356;28;20444;-72
2021/09/24 00:15:53;;;;;;;11.00;8.00;;;;;;;10.03;53.15;95489.34;5014342;28;20483;-72
2021/09/24 00:18:22;;;;;;;10.90;7.47;;;;;;;10.10;53.61;95480.34;5027102;28;20494;-72
2021/09/24 00:20:49;;;;;;;10.90;7.53;;;;;;;10.14;54.07;95480.66;5027897;28;20444;-73
2021/09/24 00:23:16;;;;;;;9.67;8.13;;;;;;;10.17;54.23;95482.78;5018083;28;20894;-75
2021/09/24 00:25:43;;;;;;;13.13;7.90;;;;;;;10.13;54.54;95473.81;5021040;28;20435;-72
2021/09/24 00:28:10;;;;;;;9.03;8.07;;;;;;;10.13;54.52;95471.19;5015200;28;20530;-73
2021/09/24 00:30:37;;;;;;;10.57;8.23;;;;;;;10.14;54.41;95481.41;5025169;28;20510;-74
2021/09/24 00:33:04;;;;;;;11.53;8.07;;;;;;;10.08;53.65;95481.56;5018646;28;20451;-72
2021/09/24 00:35:31;;;;;;;10.77;8.03;;;;;;;10.12;54.16;95478.28;5015905;28;20480;-73
2021/09/24 00:37:58;;;;;;;9.07;7.90;;;;;;;10.10;54.20;95469.06;5014407;28;20528;-74
2021/09/24 00:40:25;;;;;;;10.13;8.30;;;;;;;10.07;53.09;95456.41;5014868;28;20432;-75
2021/09/24 00:42:52;;;;;;;10.80;8.03;;;;;;;10.09;52.93;95462.25;5017724;28;20455;-72
2021/09/24 00:45:19;;;;;;;9.40;7.40;;;;;;;10.13;53.08;95463.34;5001832;28;20428;-71
2021/09/24 00:47:46;;;;;;;11.40;8.13;;;;;;;10.14;53.56;95464.94;5023451;28;20447;-71
2021/09/24 00:50:14;;;;;;;8.73;7.37;;;;;;;10.14;54.17;95454.47;5021427;28;20510;-72
2021/09/24 00:52:41;;;;;;;9.90;7.40;;;;;;;10.12;53.86;95461.75;5019323;28;20860;-72
2021/09/24 00:55:09;;;;;;;9.57;7.63;;;;;;;9.93;53.37;95426.34;5022923;28;20480;-71
2021/09/24 00:57:36;;;;;;;9.33;8.20;;;;;;;9.95;54.31;95446.03;5004061;28;20537;-71
2021/09/24 01:00:06;;;;;;;10.87;7.90;;;;;;;9.87;53.81;95432.53;5016749;28;20451;-71
2021/09/24 01:02:33;;;;;;;12.03;8.00;;;;;;;9.92;53.72;95411.66;5012815;28;20433;-72
2021/09/24 01:05:00;;;;;;;9.60;7.23;;;;;;;9.87;52.29;95437.78;5006857;28;21032;-72
2021/09/24 01:07:27;;;;;;;10.60;7.50;;;;;;;9.70;52.52;95445.59;5003970;28;20966;-71
2021/09/24 01:09:55;;;;;;;10.47;7.83;;;;;;;9.65;53.03;95442.09;4998210;28;20426;-71
2021/09/24 01:12:23;;;;;;;10.83;8.17;;;;;;;9.58;53.21;95444.84;5009982;28;20445;-75
2021/09/24 01:15:03;;;;;;;10.00;6.97;;;;;;;9.36;53.79;95436.09;4995097;28;20449;-73
2021/09/24 01:17:31;;;;;;;10.20;8.03;;;;;;;9.39;53.42;95434.84;4999431;28;21005;-73
2021/09/24 01:19:58;;;;;;;9.60;7.90;;;;;;;9.31;53.79;95433.38;5002365;28;20461;-74
2021/09/24 01:22:26;;;;;;;10.93;8.00;;;;;;;9.37;53.86;95437.69;5005960;28;20779;-72
2021/09/24 01:24:53;;;;;;;10.47;7.83;;;;;;;9.33;53.83;95420.06;5003004;28;20536;-72
2021/09/24 01:27:20;;;;;;;10.73;8.37;;;;;;;9.53;53.43;95430.91;5008867;28;20967;-71
2021/09/24 01:29:52;;;;;;;8.70;7.40;;;;;;;9.75;53.95;95421.34;5002902;28;20444;-72
2021/09/24 01:32:19;;;;;;;10.90;7.50;;;;;;;9.85;53.21;95418.91;5008537;28;20544;-72
2021/09/24 01:34:46;;;;;;;10.43;8.23;;;;;;;9.58;53.75;95405.63;5002866;28;20453;-72
2021/09/24 01:37:13;;;;;;;12.03;7.97;;;;;;;9.62;53.43;95405.94;5002214;28;20879;-73
2021/09/24 01:39:42;;;;;;;10.93;7.40;;;;;;;9.58;54.81;95402.22;5000567;28;20444;-72
2021/09/24 01:42:09;;;;;;;9.67;7.67;;;;;;;9.52;55.04;95392.69;5023924;28;20499;-72
2021/09/24 01:44:36;;;;;;;11.17;7.90;;;;;;;9.65;54.52;95408.09;5020218;28;20894;-73
2021/09/24 01:47:03;;;;;;;8.57;7.43;;;;;;;9.61;55.18;95409.59;5020764;28;20456;-72
2021/09/24 01:49:30;;;;;;;10.60;7.90;;;;;;;9.58;54.93;95410.06;5025482;28;20988;-72
2021/09/24 01:51:57;;;;;;;11.27;7.70;;;;;;;9.59;55.47;95409.84;5025503;28;20499;-73
2021/09/24 01:54:24;;;;;;;11.10;7.70;;;;;;;9.65;55.31;95413.31;5019721;28;20436;-74
2021/09/24 01:56:51;;;;;;;11.30;8.33;;;;;;;9.54;55.00;95401.09;5017534;28;20570;-73
2021/09/24 01:59:18;;;;;;;10.63;8.40;;;;;;;9.65;54.96;95419.34;5025010;28;20487;-72
2021/09/24 02:01:45;;;;;;;10.20;8.60;;;;;;;9.68;54.82;95412.84;5014972;28;20445;-74
2021/09/24 02:04:12;;;;;;;10.40;8.53;;;;;;;9.52;55.36;95398.72;5013158;28;20440;-71
2021/09/24 02:06:39;;;;;;;13.03;9.00;;;;;;;9.62;55.29;95411.16;5022904;28;20447;-71
2021/09/24 02:09:06;;;;;;;10.53;8.53;;;;;;;9.52;55.05;95409.19;5021092;28;20437;-73
2021/09/24 02:11:33;;;;;;;10.50;9.17;;;;;;;9.58;55.00;95404.84;5015931;28;20449;-72
2021/09/24 02:14:00;;;;;;;10.73;8.60;;;;;;;9.58;55.31;95407.47;5012087;28;20519;-72
2021/09/24 02:16:27;;;;;;;11.90;9.47;;;;;;;9.60;54.81;95415.88;5011837;28;20476;-72
2021/09/24 02:18:55;;;;;;;11.07;9.30;;;;;;;9.43;56.19;95399.34;5012350;28;20977;-74
2021/09/24 02:21:22;;;;;;;14.30;9.80;;;;;;;9.33;55.37;95404.38;5015036;28;20448;-74
2021/09/24 02:23:49;;;;;;;12.63;9.63;;;;;;;9.07;56.31;95398.69;5008721;28;20439;-73
2021/09/24 02:26:16;;;;;;;15.47;9.63;;;;;;;9.17;56.11;95411.97;5015759;28;20448;-74
2021/09/24 02:29:04;;;;;;;12.60;9.47;;;;;;;9.28;55.94;95417.38;5012660;28;20511;-76
2021/09/24 02:31:30;;;;;;;13.60;9.30;;;;;;;9.21;56.10;95409.69;5026089;28;20437;-72
2021/09/24 02:33:59;;;;;;;14.93;9.50;;;;;;;9.27;56.28;95411.34;5014457;28;20440;-76
2021/09/24 02:36:26;;;;;;;11.97;9.07;;;;;;;9.18;56.42;95408.31;5017836;28;20479;-73
2021/09/24 02:38:53;;;;;;;13.67;9.47;;;;;;;9.07;56.49;95401.31;5026117;28;20441;-72
2021/09/24 02:41:20;;;;;;;10.83;8.77;;;;;;;9.00;57.00;95399.88;5023218;28;20853;-73
2021/09/24 02:43:47;;;;;;;11.90;8.90;;;;;;;8.84;56.56;95364.81;5022897;28;20449;-73
2021/09/24 02:46:14;;;;;;;12.63;9.47;;;;;;;9.04;57.28;95401.78;5011185;28;20564;-72
2021/09/24 02:48:41;;;;;;;13.93;8.77;;;;;;;9.05;57.36;95400.75;5011880;28;20443;-74
2021/09/24 02:51:08;;;;;;;12.00;9.30;;;;;;;9.06;56.67;95389.28;5014626;28;20551;-72
2021/09/24 02:53:35;;;;;;;12.77;9.10;;;;;;;9.02;56.79;95388.16;5012040;28;20961;-73
2021/09/24 02:56:03;;;;;;;12.57;9.10;;;;;;;9.20;56.98;95401.03;5011289;28;20542;-73
2021/09/24 02:58:30;;;;;;;12.67;9.07;;;;;;;9.01;56.60;95391.78;5011422;28;20456;-73
2021/09/24 03:00:57;;;;;;;15.90;9.07;;;;;;;8.95;57.57;95402.38;5009385;28;20448;-72
2021/09/24 03:03:24;;;;;;;10.90;8.80;;;;;;;9.00;57.41;95405.88;5010720;28;20449;-73
2021/09/24 03:05:52;;;;;;;14.67;9.77;;;;;;;8.93;57.49;95404.44;5010841;28;20454;-72
2021/09/24 03:08:19;;;;;;;18.57;9.93;;;;;;;8.96;56.87;95403.97;5018017;28;21049;-73
2021/09/24 03:10:46;;;;;;;17.00;9.87;;;;;;;8.98;57.41;95407.13;5011197;28;20456;-72
2021/09/24 03:13:14;;;;;;;26.07;10.17;;;;;;;8.95;56.99;95408.41;5010877;28;20971;-73
2021/09/24 03:15:41;;;;;;;13.20;9.10;;;;;;;8.95;57.22;95416.25;5011516;28;20469;-73
2021/09/24 03:18:08;;;;;;;15.00;10.03;;;;;;;8.93;57.93;95413.06;5011210;28;20441;-72
2021/09/24 03:20:35;;;;;;;13.30;9.70;;;;;;;8.88;57.21;95405.16;5013934;28;20440;-72
2021/09/24 03:23:02;;;;;;;14.07;10.50;;;;;;;8.69;57.62;95385.41;5027909;28;20534;-73
2021/09/24 03:25:29;;;;;;;14.40;10.10;;;;;;;8.50;58.52;95389.22;5031920;28;20456;-73
2021/09/24 03:27:56;;;;;;;13.77;10.00;;;;;;;8.30;58.89;95378.34;5012132;28;20938;-72
2021/09/24 03:30:24;;;;;;;14.97;10.40;;;;;;;8.43;58.35;95382.53;5011421;28;20499;-72
2021/09/24 03:32:51;;;;;;;14.60;10.23;;;;;;;8.56;58.87;95377.84;5009792;28;21269;-73
2021/09/24 03:35:18;;;;;;;17.20;10.73;;;;;;;8.52;57.55;95379.31;5011222;28;20488;-72
2021/09/24 03:37:45;;;;;;;18.07;10.40;;;;;;;8.28;57.57;95349.06;5010297;28;20437;-74
2021/09/24 03:40:13;;;;;;;17.80;10.10;;;;;;;8.57;58.14;95384.66;5019999;28;20957;-72
2021/09/24 03:42:40;;;;;;;15.43;10.83;;;;;;;8.68;58.76;95391.69;5014000;28;20437;-73
2021/09/24 03:45:08;;;;;;;12.60;10.20;;;;;;;8.65;58.37;95381.69;4997140;28;20449;-72
2021/09/24 03:47:36;;;;;;;16.93;11.63;;;;;;;8.69;58.79;95385.41;5010476;28;21036;-73
2021/09/24 03:50:04;;;;;;;17.47;11.03;;;;;;;8.81;58.54;95386.16;5028922;28;20486;-72
2021/09/24 03:52:31;;;;;;;16.00;10.37;;;;;;;8.83;58.63;95381.50;5019491;28;20445;-72
2021/09/24 03:54:58;;;;;;;16.80;10.50;;;;;;;8.90;58.65;95392.66;5021392;28;20540;-72
2021/09/24 03:57:25;;;;;;;17.87;10.67;;;;;;;8.90;58.55;95405.72;5015627;28;20496;-71
2021/09/24 03:59:52;;;;;;;15.80;11.17;;;;;;;8.97;58.14;95389.88;5013115;28;20476;-72
2021/09/24 04:02:20;;;;;;;16.20;10.77;;;;;;;8.90;57.93;95384.81;4992910;28;20461;-73
2021/09/24 04:04:47;;;;;;;14.07;10.13;;;;;;;8.85;57.69;95383.91;5011321;28;20828;-72
2021/09/24 04:07:15;;;;;;;14.70;9.90;;;;;;;8.49;57.87;95371.94;5004553;28;20446;-74
2021/09/24 04:09:42;;;;;;;16.03;10.40;;;;;;;8.48;58.45;95373.00;5010415;28;20437;-74
2021/09/24 04:12:09;;;;;;;14.07;10.00;;;;;;;8.59;57.96;95373.97;5006032;28;20551;-72
2021/09/24 04:14:37;;;;;;;20.03;10.37;;;;;;;8.70;58.40;95373.16;5009580;28;20527;-72
2021/09/24 04:17:04;;;;;;;16.20;9.50;;;;;;;8.62;57.95;95376.94;5003015;28;21023;-72
2021/09/24 04:19:31;;;;;;;14.07;9.27;;;;;;;8.61;58.36;95372.72;5010083;28;20510;-71
2021/09/24 04:21:58;;;;;;;11.73;9.60;;;;;;;8.71;57.95;95380.75;5010008;28;20437;-72
2021/09/24 04:24:25;;;;;;;17.97;9.20;;;;;;;8.68;57.56;95369.97;5013711;28;20445;-75
2021/09/24 04:26:52;;;;;;;11.60;8.70;;;;;;;8.89;57.39;95385.81;5011562;28;21318;-72
2021/09/24 04:29:19;;;;;;;15.77;9.37;;;;;;;8.91;57.17;95381.16;5018886;28;20966;-71
2021/09/24 04:31:46;;;;;;;47.20;27.07;;;;;;;8.74;57.26;95375.06;5005550;28;20487;-73
2021/09/24 04:34:13;;;;;;;145.37;108.67;;;;;;;9.00;58.17;95374.53;5011053;28;20869;-71
2021/09/24 04:36:40;;;;;;;217.20;189.57;;;;;;;9.16;56.93;95373.75;5011592;28;20973;-74
2021/09/24 04:39:07;;;;;;;15.17;9.67;;;;;;;8.97;56.88;95380.22;5003050;28;20998;-71
2021/09/24 04:41:34;;;;;;;13.30;9.03;;;;;;;8.75;57.81;95363.59;5015754;28;20503;-69
2021/09/24 04:44:01;;;;;;;12.47;9.77;;;;;;;8.95;57.68;95377.06;5010472;28;20447;-73
2021/09/24 04:46:28;;;;;;;21.40;9.80;;;;;;;8.95;58.20;95382.28;5013285;28;20969;-72
2021/09/24 04:48:55;;;;;;;14.37;9.57;;;;;;;9.09;58.58;95372.31;5012348;28;20445;-71
2021/09/24 04:51:22;;;;;;;18.17;10.33;;;;;;;9.19;58.94;95373.31;5014836;28;20467;-72
2021/09/24 04:53:49;;;;;;;529.90;446.60;;;;;;;9.23;59.22;95357.16;5014221;28;20444;-69
2021/09/24 04:56:16;;;;;;;61.13;43.30;;;;;;;9.37;59.12;95379.34;5015675;28;20577;-69
2021/09/24 04:58:43;;;;;;;40.97;31.77;;;;;;;9.48;58.93;95383.72;5013783;28;20472;-69
2021/09/24 05:01:10;;;;;;;18.13;11.47;;;;;;;9.54;58.18;95380.19;5002432;28;20446;-69
2021/09/24 05:03:39;;;;;;;24.40;11.23;;;;;;;9.61;58.62;95380.81;5011410;28;21014;-69
2021/09/24 05:06:06;;;;;;;20.53;11.63;;;;;;;9.49;58.02;95374.88;5013189;28;20821;-68
2021/09/24 05:08:33;;;;;;;22.03;11.43;;;;;;;9.34;57.96;95379.84;5013603;28;20805;-69
2021/09/24 05:11:00;;;;;;;23.53;12.40;;;;;;;9.42;57.69;95382.03;5013188;28;21012;-68
2021/09/24 05:13:27;;;;;;;20.20;12.00;;;;;;;9.56;57.84;95393.81;5014874;28;20531;-69
2021/09/24 05:15:54;;;;;;;21.67;12.93;;;;;;;9.61;57.97;95393.91;5013999;28;20441;-70
2021/09/24 05:18:21;;;;;;;19.40;11.30;;;;;;;9.68;57.81;95391.91;5028710;28;20796;-67
2021/09/24 05:20:48;;;;;;;37.53;26.17;;;;;;;9.71;58.57;95401.91;5013387;28;20440;-69
2021/09/24 05:23:15;;;;;;;42.27;30.63;;;;;;;9.79;57.18;95394.47;5013344;28;20445;-69
2021/09/24 05:25:42;;;;;;;17.63;11.50;;;;;;;9.45;56.31;95392.06;5013868;28;20444;-69
2021/09/24 05:28:09;;;;;;;19.80;10.80;;;;;;;8.78;58.03;95389.25;5005649;28;20444;-66
2021/09/24 05:30:36;;;;;;;17.43;10.90;;;;;;;8.83;58.74;95384.13;5020788;28;20508;-70
2021/09/24 05:33:03;;;;;;;18.27;10.40;;;;;;;8.56;58.91;95377.84;5012724;28;20447;-70
2021/09/24 05:35:30;;;;;;;16.43;10.93;;;;;;;8.61;59.41;95380.53;5013289;28;20539;-68
2021/09/24 05:38:11;;;;;;;19.03;11.23;;;;;;;9.09;58.49;95388.81;5011150;28;20453;-66
2021/09/24 05:40:38;;;;;;;16.03;11.17;;;;;;;9.01;58.40;95375.31;5010407;28;20479;-66
2021/09/24 05:43:05;;;;;;;19.07;11.17;;;;;;;9.30;58.66;95373.47;5009945;28;20445;-66
2021/09/24 05:45:31;;;;;;;19.00;11.63;;;;;;;9.32;57.66;95334.81;5012020;28;20440;-66
2021/09/24 05:47:58;;;;;;;25.13;15.80;;;;;;;9.37;57.71;95363.66;5011233;28;20452;-66
2021/09/24 05:50:26;;;;;;;16.53;12.23;;;;;;;9.59;56.42;95359.31;5011862;28;20544;-67
2021/09/24 05:52:54;;;;;;;16.87;12.63;;;;;;;10.02;56.30;95362.06;5012508;28;20448;-66
2021/09/24 05:55:23;;;;;;;22.53;11.53;;;;;;;10.16;57.03;95348.44;5012067;28;20444;-67
2021/09/24 05:57:51;;;;;;;20.13;11.90;;;;;;;10.42;56.22;95349.56;5012285;28;20505;-66
2021/09/24 06:00:21;;;;;;;14.73;10.83;;;;;;;10.51;55.98;95340.22;5012629;28;20946;-66
2021/09/24 06:02:50;;;;;;;14.33;10.47;;;;;;;10.77;55.03;95344.75;5002356;28;20441;-67
2021/09/24 06:05:18;;;;;;;19.83;10.87;;;;;;;10.90;54.69;95346.19;4993265;28;20445;-67
2021/09/24 06:07:45;;;;;;;16.03;10.97;;;;;;;10.73;55.89;95359.38;4998974;28;20448;-66
2021/09/24 06:10:15;;;;;;;14.83;11.00;;;;;;;10.79;55.44;95357.59;5013931;28;20444;-67
2021/09/24 06:12:44;;;;;;;17.33;11.80;;;;;;;10.90;56.21;95357.47;5018691;28;20969;-66
2021/09/24 06:15:12;;;;;;;18.70;13.00;;;;;;;10.83;56.38;95369.19;5023282;28;20444;-69
2021/09/24 06:17:39;;;;;;;15.87;11.53;;;;;;;10.84;56.19;95371.56;5016915;28;20471;-66
2021/09/24 06:20:06;;;;;;;15.30;10.37;;;;;;;10.82;55.49;95371.00;5022470;28;20978;-66
2021/09/24 06:22:33;;;;;;;17.80;9.90;;;;;;;11.16;54.71;95380.31;5011548;28;20993;-67
2021/09/24 06:25:00;;;;;;;13.57;10.03;;;;;;;11.21;55.74;95383.00;5012658;28;20448;-66
2021/09/24 06:27:27;;;;;;;13.80;9.43;;;;;;;11.39;55.79;95368.72;5012082;28;20437;-66
2021/09/24 06:29:54;;;;;;;15.80;10.47;;;;;;;11.65;54.56;95377.66;5013664;28;20440;-67
2021/09/24 06:32:21;;;;;;;13.63;10.20;;;;;;;11.62;53.91;95368.44;5012957;28;20452;-67
2021/09/24 06:34:49;;;;;;;13.47;9.23;;;;;;;11.77;52.37;95367.78;5012339;28;20894;-67
2021/09/24 06:37:16;;;;;;;13.37;9.20;;;;;;;11.77;50.95;95370.41;5000546;28;20492;-66
2021/09/24 06:39:44;;;;;;;17.80;9.73;;;;;;;11.67;52.01;95375.56;5006193;28;20448;-68
2021/09/24 06:42:11;;;;;;;12.43;9.47;;;;;;;11.72;51.47;95368.53;5001519;28;20441;-66
2021/09/24 06:44:39;;;;;;;16.07;8.50;;;;;;;11.73;50.72;95364.84;4996077;28;20947;-66
2021/09/24 06:47:06;;;;;;;13.03;9.43;;;;;;;11.78;51.22;95361.50;5000081;28;20885;-66
2021/09/24 06:49:36;;;;;;;12.17;8.70;;;;;;;11.87;51.14;95354.72;5011358;28;20745;-65
2021/09/24 06:52:04;;;;;;;13.13;8.20;;;;;;;11.80;50.59;95364.66;4998511;28;20464;-67
2021/09/24 06:54:31;;;;;;;14.33;8.93;;;;;;;12.12;50.76;95365.41;5011827;28;20452;-66
2021/09/24 06:56:58;;;;;;;14.57;9.07;;;;;;;12.04;50.66;95358.00;5010837;28;20554;-68
2021/09/24 06:59:26;;;;;;;11.27;9.10;;;;;;;11.69;50.30;95349.88;5012314;28;20522;-67
2021/09/24 07:01:56;;;;;;;14.20;9.00;;;;;;;12.03;51.19;95344.06;5011106;28;20555;-66
2021/09/24 07:04:24;;;;;;;13.33;9.77;;;;;;;12.12;50.17;95333.88;5011551;28;20445;-66
2021/09/24 07:06:51;;;;;;;13.90;9.90;;;;;;;12.12;49.61;95339.13;5023262;28;20456;-66
2021/09/24 07:09:18;;;;;;;12.80;9.10;;;;;;;12.30;49.79;95322.94;5026452;28;20449;-67
2021/09/24 07:11:48;;;;;;;13.97;9.87;;;;;;;12.34;49.42;95321.38;5011326;28;20866;-67
2021/09/24 07:14:17;;;;;;;17.07;8.57;;;;;;;12.51;48.87;95324.63;5011107;28;20479;-67
2021/09/24 07:16:46;;;;;;;17.73;8.97;;;;;;;12.45;48.33;95324.84;5010982;28;20512;-66
2021/09/24 07:19:14;;;;;;;15.30;8.70;;;;;;;12.42;48.85;95320.13;5011076;28;20457;-67
2021/09/24 07:21:41;;;;;;;17.33;8.53;;;;;;;12.28;49.33;95330.28;5011384;28;20499;-66
2021/09/24 07:24:08;;;;;;;14.20;8.80;;;;;;;12.62;48.92;95326.25;5011038;28;20440;-67
2021/09/24 07:26:35;;;;;;;16.20;9.00;;;;;;;12.87;49.60;95344.75;5012359;28;20474;-66
2021/09/24 07:29:03;;;;;;;14.40;8.53;;;;;;;13.09;50.06;95340.13;5013459;28;20540;-68
2021/09/24 07:31:30;;;;;;;15.20;10.07;;;;;;;13.14;50.11;95336.69;5011665;28;20503;-66
2021/09/24 07:33:57;;;;;;;24.20;10.10;;;;;;;13.38;49.77;95342.25;5011343;28;20452;-66
2021/09/24 07:36:24;;;;;;;19.70;8.47;;;;;;;13.64;48.20;95349.13;5010277;28;20502;-66
2021/09/24 07:38:51;;;;;;;13.03;8.70;;;;;;;13.56;49.94;95353.06;5011090;28;20441;-66
2021/09/24 07:41:19;;;;;;;14.60;8.80;;;;;;;13.74;49.55;95359.69;5010792;28;20441;-67
2021/09/24 07:43:49;;;;;;;11.17;7.97;;;;;;;13.83;47.89;95344.94;5011196;28;20902;-66
2021/09/24 07:46:17;;;;;;;11.70;8.30;;;;;;;14.00;48.60;95361.25;5025501;28;21363;-67
2021/09/24 07:48:45;;;;;;;13.20;8.50;;;;;;;13.65;49.89;95353.38;5022930;28;20441;-67
2021/09/24 07:51:13;;;;;;;17.00;9.63;;;;;;;13.95;48.42;95363.88;5012057;28;20475;-65
2021/09/24 07:53:40;;;;;;;12.53;8.73;;;;;;;14.28;47.93;95370.47;4999971;28;20441;-66
2021/09/24 07:56:07;;;;;;;12.90;8.57;;;;;;;14.48;47.40;95365.94;5012753;28;20523;-68
2021/09/24 07:58:38;;;;;;;16.27;8.57;;;;;;;14.37;47.64;95363.59;5013211;28;20500;-66
2021/09/24 08:01:10;;;;;;;11.60;9.37;;;;;;;14.60;47.89;95353.25;5009937;28;20455;-65
2021/09/24 08:03:38;;;;;;;16.97;10.47;;;;;;;14.73;47.92;95351.88;4993293;28;20441;-68
2021/09/24 08:06:05;;;;;;;16.53;10.07;;;;;;;14.81;47.25;95336.28;4997243;28;20448;-66
2021/09/24 08:08:32;;;;;;;17.57;9.87;;;;;;;14.92;46.97;95351.03;5010468;28;20436;-65
2021/09/24 08:11:00;;;;;;;16.37;10.07;;;;;;;15.16;46.29;95346.66;5009815;28;20959;-68
2021/09/24 08:13:27;;;;;;;21.20;10.43;;;;;;;15.24;46.41;95346.09;5010787;28;20445;-68
2021/09/24 08:15:56;;;;;;;20.03;10.63;;;;;;;15.00;46.25;95337.25;5010101;28;20441;-66
2021/09/24 08:18:23;;;;;;;15.50;10.23;;;;;;;15.25;45.34;95321.25;5009567;28;20566;-67
2021/09/24 08:20:52;;;;;;;13.27;9.67;;;;;;;15.21;45.35;95322.88;5009907;28;21039;-66
2021/09/24 08:23:20;;;;;;;17.50;10.47;;;;;;;15.14;45.65;95316.34;5010252;28;20472;-66
2021/09/24 08:25:47;;;;;;;14.73;9.37;;;;;;;15.52;45.02;95304.22;5010305;28;20985;-66
2021/09/24 08:28:14;;;;;;;15.53;9.47;;;;;;;15.60;44.97;95293.06;5010081;28;20428;-66
2021/09/24 08:30:41;;;;;;;15.63;9.10;;;;;;;15.74;44.20;95309.84;5010512;28;20476;-67
2021/09/24 08:33:08;;;;;;;14.27;9.90;;;;;;;15.87;44.84;95309.22;5009923;28;20437;-67
2021/09/24 08:35:37;;;;;;;22.97;10.27;;;;;;;16.01;45.25;95299.56;5010685;28;20451;-66
2021/09/24 08:38:04;;;;;;;15.00;9.20;;;;;;;16.10;45.41;95319.84;5008909;28;20483;-67
2021/09/24 08:40:31;;;;;;;10.97;9.33;;;;;;;16.27;45.49;95311.47;5010263;28;20444;-65
2021/09/24 08:43:00;;;;;;;19.40;8.83;;;;;;;16.30;45.37;95296.88;5009736;28;20444;-67
2021/09/24 08:45:30;;;;;;;14.47;7.87;;;;;;;16.39;46.47;95306.56;5010111;28;20445;-66
2021/09/24 08:48:05;;;;;;;10.20;7.73;;;;;;;16.59;46.40;95301.09;5009287;28;20460;-66
2021/09/24 08:50:36;;;;;;;14.30;8.43;;;;;;;16.71;45.84;95306.78;5010528;28;20498;-67
2021/09/24 08:53:05;;;;;;;19.90;8.80;;;;;;;16.91;44.04;95290.66;5009677;28;20475;-67
2021/09/24 08:55:33;;;;;;;13.97;7.33;;;;;;;17.07;42.88;95296.50;5009831;28;20452;-67
2021/09/24 08:58:00;;;;;;;11.97;7.43;;;;;;;17.09;44.08;95283.78;5023262;28;20565;-67
2021/09/24 09:00:30;;;;;;;11.73;6.50;;;;;;;17.33;41.51;95283.69;4996564;28;20444;-68
2021/09/24 09:03:05;;;;;;;13.83;6.70;;;;;;;17.61;42.80;95280.91;5009285;28;20444;-67
2021/09/24 09:05:42;;;;;;;11.50;5.83;;;;;;;17.91;41.20;95269.81;5008536;28;21247;-66
2021/09/24 09:08:09;;;;;;;10.63;6.37;;;;;;;18.00;41.57;95267.25;5019649;28;20444;-66
2021/09/24 09:10:56;;;;;;;12.57;6.03;;;;;;;18.07;43.00;95272.97;5009497;28;20445;-66
2021/09/24 09:13:28;;;;;;;10.93;5.80;;;;;;;18.37;41.13;95267.09;5010026;28;20449;-68
2021/09/24 09:16:02;;;;;;;12.93;6.17;;;;;;;18.56;40.90;95269.66;5012736;28;20431;-67
2021/09/24 09:18:32;;;;;;;12.60;6.73;;;;;;;18.48;41.56;95267.72;5019064;28;20510;-67
2021/09/24 09:21:01;;;;;;;23.20;7.17;;;;;;;18.58;39.90;95265.66;5009362;28;20437;-67
2021/09/24 09:23:29;;;;;;;12.40;7.07;;;;;;;18.52;41.21;95263.41;5009933;28;20210;-66
2021/09/24 09:25:59;;;;;;;11.33;6.07;;;;;;;18.86;39.39;95253.91;5009617;28;20198;-67
2021/09/24 09:28:33;;;;;;;11.90;5.80;;;;;;;19.02;39.04;95257.03;5010133;28;20445;-67
2021/09/24 09:31:02;;;;;;;15.93;6.83;;;;;;;19.39;37.73;95255.97;5011524;28;20190;-67
2021/09/24 09:33:35;;;;;;;14.70;6.90;;;;;;;19.17;39.49;95241.56;5013729;28;20259;-67
2021/09/24 09:36:02;;;;;;;14.30;7.00;;;;;;;19.23;36.79;95246.75;5013459;28;20276;-66
2021/09/24 09:38:37;;;;;;;12.10;6.50;;;;;;;19.44;35.27;95242.53;5016657;28;20300;-67
2021/09/24 09:41:07;;;;;;;10.53;6.27;;;;;;;19.43;37.50;95233.00;5030229;28;20204;-65
2021/09/24 09:43:37;;;;;;;10.20;5.33;;;;;;;19.23;38.23;95227.03;5015620;28;20206;-67
2021/09/24 09:46:07;;;;;;;13.10;6.07;;;;;;;19.68;34.54;95227.06;5014162;28;20198;-66
2021/09/24 09:48:35;;;;;;;11.90;6.10;;;;;;;19.73;33.62;95229.59;4999725;28;20647;-66
2021/09/24 09:51:03;;;;;;;12.20;5.77;;;;;;;19.70;33.98;95224.91;5025201;28;20247;-67
2021/09/24 09:53:31;;;;;;;10.60;6.37;;;;;;;19.85;34.70;95221.88;5018340;28;20720;-67
2021/09/24 09:56:02;;;;;;;8.50;5.07;;;;;;;20.23;35.19;95220.34;5021166;28;20213;-67
2021/09/24 09:58:31;;;;;;;7.37;4.30;;;;;;;20.52;33.17;95225.13;5012327;28;20241;-67
2021/09/24 10:01:03;;;;;;;7.67;4.17;;;;;;;20.61;30.96;95224.06;5003357;28;20206;-68
2021/09/24 10:03:34;;;;;;;6.17;3.30;;;;;;;20.50;28.49;95209.47;5009252;28;20276;-66
2021/09/24 10:06:03;;;;;;;4.83;3.30;;;;;;;20.85;28.32;95208.44;5012099;28;20209;-67
2021/09/24 10:08:33;;;;;;;6.03;3.40;;;;;;;20.93;28.66;95204.19;5012884;28;20194;-65
2021/09/24 10:11:13;;;;;;;3.30;3.00;;;;;;;21.17;29.36;95205.34;5012299;28;20189;-67
2021/09/24 10:14:00;;;;;;;5.13;3.50;;;;;;;21.17;27.37;95189.34;5012542;28;20656;-67
2021/09/24 10:16:32;;;;;;;6.53;3.50;;;;;;;21.14;27.09;95186.53;5012217;28;20594;-68
2021/09/24 10:19:00;;;;;;;6.57;3.43;;;;;;;21.18;28.55;95190.91;5012406;28;20260;-68
2021/09/24 10:21:48;;;;;;;6.10;3.87;;;;;;;21.09;26.67;95192.78;5012309;28;20585;-68
2021/09/24 10:24:14;;;;;;;9.43;3.47;;;;;;;21.20;27.11;95193.28;5025751;28;20228;-65
2021/09/24 10:26:44;;;;;;;6.33;3.37;;;;;;;21.51;26.60;95203.75;5012189;28;20197;-66
2021/09/24 10:29:20;;;;;;;6.13;3.73;;;;;;;21.75;27.47;95198.69;5011987;28;20209;-66
2021/09/24 10:31:50;;;;;;;5.57;3.07;;;;;;;22.00;27.11;95203.19;5011773;28;20232;-66
2021/09/24 10:34:20;;;;;;;7.57;3.40;;;;;;;22.04;26.03;95202.22;5011955;28;20236;-66
2021/09/24 10:36:53;;;;;;;4.73;3.07;;;;;;;21.75;26.44;95196.03;5011959;28;20206;-66
2021/09/24 10:39:29;;;;;;;4.43;3.30;;;;;;;21.95;26.59;95203.38;5011677;28;20666;-67
2021/09/24 10:42:18;;;;;;;4.83;3.07;;;;;;;22.08;27.08;95197.81;5011479;28;20213;-66
2021/09/24 10:45:09;;;;;;;4.00;2.90;;;;;;;22.62;28.08;95190.06;5014671;28;20259;-67
2021/09/24 10:48:13;;;;;;;5.13;3.10;;;;;;;22.90;26.06;95180.44;5019270;28;20232;-66
2021/09/24 10:50:40;;;;;;;6.47;2.97;;;;;;;23.02;26.75;95183.19;5003468;28;20244;-65
2021/09/24 10:53:10;;;;;;;3.67;3.07;;;;;;;22.78;25.31;95175.81;5011775;28;20718;-66
2021/09/24 10:55:47;;;;;;;6.77;3.23;;;;;;;22.86;25.44;95174.19;5013969;28;20308;-66
2021/09/24 10:58:35;;;;;;;8.70;3.33;;;;;;;23.04;25.74;95168.41;4997894;28;20238;-66
2021/09/24 11:01:06;;;;;;;5.77;2.80;;;;;;;21.90;25.09;95147.50;5011086;28;20194;-68
2021/09/24 11:03:48;;;;;;;5.30;3.10;;;;;;;22.15;25.64;95160.72;5009416;28;20206;-67
2021/09/24 11:06:15;;;;;;;4.13;3.03;;;;;;;22.26;25.48;95149.72;5002727;28;20202;-67
2021/09/24 11:08:45;;;;;;;5.57;3.20;;;;;;;22.57;25.60;95148.28;5011348;28;20197;-66
2021/09/24 11:11:30;;;;;;;5.83;3.30;;;;;;;22.69;25.62;95148.38;5010849;28;20277;-65
2021/09/24 11:14:02;;;;;;;4.67;3.17;;;;;;;22.79;26.40;95150.66;5011580;28;20197;-66
2021/09/24 11:16:43;;;;;;;7.90;3.30;;;;;;;23.08;25.86;95149.81;5011628;28;20202;-66
2021/09/24 11:19:30;;;;;;;4.20;3.57;;;;;;;23.08;25.08;95142.56;5011412;28;20210;-66
2021/09/24 11:22:13;;;;;;;3.90;3.40;;;;;;;22.66;24.64;95132.97;5013820;28;20586;-67
2021/09/24 11:24:47;;;;;;;6.47;3.13;;;;;;;23.11;25.62;95122.41;5012417;28;20283;-66
2021/09/24 11:27:31;;;;;;;3.60;3.30;;;;;;;22.37;25.64;95122.28;5011032;28;20695;-66
2021/09/24 11:30:04;;;;;;;7.37;3.30;;;;;;;22.50;26.58;95123.94;5000984;28;20210;-65
2021/09/24 11:32:36;;;;;;;5.27;3.23;;;;;;;22.61;25.82;95119.81;5013238;28;20206;-66
2021/09/24 11:35:05;;;;;;;4.10;3.13;;;;;;;22.06;26.17;95121.88;5013993;28;20646;-65
2021/09/24 11:37:35;;;;;;;3.43;3.13;;;;;;;22.17;26.21;95104.34;5013110;28;20210;-66